createdAt,value
2023-05-14T00:01:39.480Z,73.30
2023-05-14T00:04:06.506Z,73.60
2023-05-14T00:06:33.457Z,73.90
2023-05-14T00:09:00.478Z,74.30
2023-05-14T00:11:27.615Z,75.10
2023-05-14T00:13:54.442Z,74.80
2023-05-14T00:16:21.399Z,76.30
2023-05-14T00:18:48.459Z,75.80
2023-05-14T00:21:15.411Z,76.30
2023-05-14T00:23:42.449Z,76.60
2023-05-14T00:26:09.308Z,76.60
2023-05-14T00:28:37.262Z,76.70
2023-05-14T00:31:04.298Z,76.60
2023-05-14T00:33:31.137Z,76.90
2023-05-14T00:35:57.995Z,77.40
2023-05-14T00:38:27.632Z,77.50
2023-05-14T00:40:54.544Z,77.40
2023-05-14T00:43:22.528Z,77.40
2023-05-14T00:45:55.220Z,77.50
2023-05-14T00:48:23.027Z,77.80
2023-05-14T00:50:51.125Z,78.00
2023-05-14T00:53:21.342Z,77.90
2023-05-14T00:55:50.323Z,78.40
2023-05-14T00:58:18.597Z,78.70
2023-05-14T01:00:45.452Z,79.20
2023-05-14T01:03:12.350Z,79.70
2023-05-14T01:06:09.655Z,79.90
2023-05-14T01:09:13.483Z,80.20
2023-05-14T01:12:05.662Z,80.30
2023-05-14T01:14:52.575Z,80.50
2023-05-14T01:17:22.804Z,81.00
2023-05-14T01:19:52.037Z,81.50
2023-05-14T01:22:19.043Z,81.70
2023-05-14T01:24:45.922Z,81.40
2023-05-14T01:27:42.473Z,81.70
2023-05-14T01:30:34.170Z,82.20
2023-05-14T01:33:06.314Z,82.30
2023-05-14T01:35:33.544Z,82.70
2023-05-14T01:38:02.083Z,83.00
2023-05-14T01:40:29.863Z,83.00
2023-05-14T01:42:57.414Z,83.00
2023-05-14T01:45:24.702Z,83.20
2023-05-14T01:47:51.963Z,84.10
2023-05-14T01:50:19.021Z,84.00
2023-05-14T01:52:45.842Z,84.20
2023-05-14T01:55:12.759Z,84.50
2023-05-14T01:57:39.674Z,84.60
2023-05-14T02:00:07.575Z,85.10
2023-05-14T02:02:41.032Z,85.50
2023-05-14T02:05:10.864Z,86.00
2023-05-14T02:07:37.686Z,86.50
2023-05-14T02:10:05.187Z,86.80
2023-05-14T02:12:31.958Z,87.20
2023-05-14T02:14:58.755Z,87.40
2023-05-14T02:17:26.607Z,87.90
2023-05-14T02:19:54.462Z,88.00
2023-05-14T02:22:21.321Z,88.40
2023-05-14T02:24:49.721Z,88.50
2023-05-14T02:27:17.998Z,88.20
2023-05-14T02:29:44.944Z,87.90
2023-05-14T02:32:11.838Z,87.90
2023-05-14T02:34:39.416Z,88.50
2023-05-14T02:37:06.576Z,88.60
2023-05-14T02:39:33.440Z,88.80
2023-05-14T02:42:00.267Z,89.30
2023-05-14T02:44:27.132Z,90.00
2023-05-14T02:46:53.947Z,90.30
2023-05-14T02:49:20.943Z,90.30
2023-05-14T02:51:47.715Z,90.50
2023-05-14T02:54:16.409Z,90.60
2023-05-14T02:56:43.440Z,90.60
2023-05-14T02:59:10.557Z,90.70
2023-05-14T03:01:37.918Z,90.70
2023-05-14T03:04:05.603Z,90.60
2023-05-14T03:06:32.395Z,90.50
2023-05-14T03:08:59.390Z,90.60
2023-05-14T03:11:26.250Z,90.70
2023-05-14T03:13:53.178Z,90.60
2023-05-14T03:16:20.054Z,90.60
2023-05-14T03:18:46.911Z,90.30
2023-05-14T03:21:13.882Z,90.20
2023-05-14T03:23:40.900Z,90.30
2023-05-14T03:26:08.318Z,90.30
2023-05-14T03:28:35.212Z,90.50
2023-05-14T03:31:02.177Z,90.80
2023-05-14T03:33:31.111Z,91.20
2023-05-14T03:35:57.938Z,91.40
2023-05-14T03:38:24.813Z,92.10
2023-05-14T03:40:51.594Z,91.90
2023-05-14T03:43:18.501Z,92.00
2023-05-14T03:45:45.529Z,92.10
2023-05-14T03:48:12.475Z,92.20
2023-05-14T03:50:39.511Z,92.40
2023-05-14T03:53:06.567Z,92.40
2023-05-14T03:55:33.348Z,92.40
2023-05-14T03:58:00.511Z,92.40
2023-05-14T04:00:27.382Z,92.40
2023-05-14T04:02:54.381Z,92.60
2023-05-14T04:05:23.578Z,93.10
2023-05-14T04:07:52.470Z,92.70
2023-05-14T04:10:20.505Z,92.80
2023-05-14T04:12:47.337Z,92.80
2023-05-14T04:15:14.365Z,92.90
2023-05-14T04:17:42.823Z,93.10
2023-05-14T04:20:10.021Z,93.10
2023-05-14T04:22:36.853Z,93.00
2023-05-14T04:25:03.716Z,92.80
2023-05-14T04:27:30.714Z,92.90
2023-05-14T04:29:58.188Z,93.00
2023-05-14T04:32:25.628Z,93.20
2023-05-14T04:34:52.528Z,93.30
2023-05-14T04:37:19.312Z,93.40
2023-05-14T04:39:46.070Z,93.60
2023-05-14T04:42:13.822Z,93.70
2023-05-14T04:44:40.635Z,93.90
2023-05-14T04:47:07.541Z,93.90
2023-05-14T04:49:34.351Z,93.80
2023-05-14T04:52:02.530Z,93.70
2023-05-14T04:54:29.385Z,93.80
2023-05-14T04:56:56.265Z,93.70
2023-05-14T04:59:23.112Z,93.70
2023-05-14T05:01:50.006Z,93.60
2023-05-14T05:04:16.875Z,94.20
2023-05-14T05:06:43.783Z,93.90
2023-05-14T05:09:10.554Z,93.90
2023-05-14T05:11:38.761Z,93.90
2023-05-14T05:14:05.699Z,94.00
2023-05-14T05:16:32.637Z,94.10
2023-05-14T05:18:59.700Z,94.10
2023-05-14T05:21:26.751Z,93.80
2023-05-14T05:23:53.558Z,93.70
2023-05-14T05:26:22.265Z,93.50
2023-05-14T05:28:49.150Z,93.80
2023-05-14T05:31:20.041Z,93.60
2023-05-14T05:33:47.320Z,94.40
2023-05-14T05:36:14.337Z,94.30
2023-05-14T05:38:41.343Z,94.50
2023-05-14T05:41:08.123Z,94.40
2023-05-14T05:43:37.929Z,94.70
2023-05-14T05:46:04.886Z,94.30
2023-05-14T05:48:32.131Z,94.20
2023-05-14T05:51:02.269Z,94.30
2023-05-14T05:53:29.102Z,94.60
2023-05-14T05:55:56.338Z,94.50
2023-05-14T05:58:23.492Z,94.50
2023-05-14T06:00:50.341Z,94.40
2023-05-14T06:03:17.195Z,94.60
2023-05-14T06:05:44.711Z,94.50
2023-05-14T06:08:11.644Z,94.30
2023-05-14T06:10:38.401Z,94.70
2023-05-14T06:13:05.297Z,95.20
2023-05-14T06:15:32.195Z,95.30
2023-05-14T06:17:59.107Z,95.30
2023-05-14T06:20:26.181Z,95.80
2023-05-14T06:22:53.278Z,96.10
2023-05-14T06:25:20.338Z,95.90
2023-05-14T06:27:47.389Z,95.80
2023-05-14T06:30:14.752Z,94.90
2023-05-14T06:32:41.792Z,94.40
2023-05-14T06:35:09.258Z,94.30
2023-05-14T06:37:36.217Z,94.00
2023-05-14T06:40:03.661Z,93.80
2023-05-14T06:42:30.509Z,93.90
2023-05-14T06:44:58.377Z,93.90
2023-05-14T06:47:25.499Z,93.80
2023-05-14T06:49:52.486Z,93.90
2023-05-14T06:52:19.399Z,93.90
2023-05-14T06:54:46.378Z,93.90
2023-05-14T06:57:14.180Z,93.60
2023-05-14T06:59:41.285Z,93.50
2023-05-14T07:02:08.152Z,93.60
2023-05-14T07:04:35.091Z,93.80
2023-05-14T07:07:02.066Z,94.10
2023-05-14T07:09:28.823Z,94.90
2023-05-14T07:11:55.697Z,94.60
2023-05-14T07:14:22.453Z,94.20
2023-05-14T07:16:49.325Z,94.40
2023-05-14T07:19:16.290Z,94.40
2023-05-14T07:21:43.167Z,94.30
2023-05-14T07:24:09.978Z,94.40
2023-05-14T07:26:36.899Z,94.20
2023-05-14T07:29:03.729Z,94.20
2023-05-14T07:31:30.905Z,94.00
2023-05-14T07:33:58.000Z,93.50
2023-05-14T07:36:25.285Z,93.60
2023-05-14T07:38:52.117Z,93.60
2023-05-14T07:41:19.008Z,93.50
2023-05-14T07:43:46.132Z,93.00
2023-05-14T07:46:13.003Z,92.90
2023-05-14T07:48:39.912Z,93.20
2023-05-14T07:51:07.012Z,93.10
2023-05-14T07:53:33.827Z,92.90
2023-05-14T07:56:00.966Z,92.80
2023-05-14T07:58:28.829Z,91.90
2023-05-14T08:00:56.749Z,91.30
2023-05-14T08:03:23.873Z,91.10
2023-05-14T08:05:51.760Z,90.70
2023-05-14T08:08:18.562Z,90.50
2023-05-14T08:10:45.552Z,90.10
2023-05-14T08:13:12.392Z,89.90
2023-05-14T08:15:39.195Z,88.40
2023-05-14T08:18:06.179Z,85.90
2023-05-14T08:20:33.129Z,85.70
2023-05-14T08:22:59.901Z,85.30
2023-05-14T08:25:26.790Z,85.00
2023-05-14T08:27:54.222Z,85.20
2023-05-14T08:30:22.767Z,84.70
2023-05-14T08:32:49.946Z,83.60
2023-05-14T08:35:17.943Z,83.90
2023-05-14T08:37:44.982Z,83.60
2023-05-14T08:40:13.222Z,83.20
2023-05-14T08:42:44.812Z,82.50
2023-05-14T08:45:19.410Z,81.40
2023-05-14T08:47:50.933Z,81.30
2023-05-14T08:50:22.413Z,79.20
2023-05-14T08:52:50.197Z,78.30
2023-05-14T08:55:17.438Z,78.60
2023-05-14T08:57:44.955Z,77.60
2023-05-14T09:00:12.418Z,76.80
2023-05-14T09:02:44.229Z,76.30
2023-05-14T09:05:11.294Z,76.50
2023-05-14T09:07:38.464Z,75.00
2023-05-14T09:10:06.036Z,73.90
2023-05-14T09:12:32.906Z,73.10
2023-05-14T09:14:59.725Z,72.80
2023-05-14T09:17:30.028Z,73.30
2023-05-14T09:19:56.939Z,71.80
2023-05-14T09:22:23.828Z,71.50
2023-05-14T09:25:03.779Z,70.70
2023-05-14T09:27:31.975Z,70.00
2023-05-14T09:30:12.538Z,69.50
2023-05-14T09:32:41.378Z,69.70
2023-05-14T09:35:22.508Z,68.40
2023-05-14T09:37:54.966Z,68.00
2023-05-14T09:40:24.370Z,68.20
2023-05-14T09:42:51.513Z,67.80
2023-05-14T09:45:18.461Z,67.70
2023-05-14T09:47:45.670Z,67.90
2023-05-14T09:50:13.236Z,68.00
2023-05-14T09:52:40.303Z,67.80
2023-05-14T09:55:08.048Z,66.10
2023-05-14T09:57:35.379Z,65.80
2023-05-14T10:00:02.311Z,67.40
2023-05-14T10:02:37.672Z,68.20
2023-05-14T10:05:07.098Z,68.10
2023-05-14T10:07:44.467Z,67.20
2023-05-14T10:10:15.632Z,66.30
2023-05-14T10:12:46.760Z,66.20
2023-05-14T10:15:19.522Z,67.20
2023-05-14T10:17:53.126Z,67.20
2023-05-14T10:20:22.849Z,68.30
2023-05-14T10:22:50.593Z,68.20
2023-05-14T10:25:17.589Z,68.40
2023-05-14T10:27:44.926Z,67.50
2023-05-14T10:30:12.858Z,66.20
2023-05-14T10:32:41.824Z,65.60
2023-05-14T10:35:25.392Z,65.30
2023-05-14T10:37:52.256Z,64.10
2023-05-14T10:40:20.609Z,63.50
2023-05-14T10:42:47.833Z,64.00
2023-05-14T10:45:15.756Z,64.00
2023-05-14T10:47:45.381Z,62.60
2023-05-14T10:50:14.350Z,64.50
2023-05-14T10:52:43.541Z,64.30
2023-05-14T10:55:14.091Z,62.70
2023-05-14T10:57:43.738Z,62.40
2023-05-14T11:00:14.011Z,60.20
2023-05-14T11:02:42.982Z,60.10
2023-05-14T11:05:17.787Z,60.80
2023-05-14T11:07:47.094Z,60.80
2023-05-14T11:10:22.277Z,59.80
2023-05-14T11:12:51.416Z,58.40
2023-05-14T11:15:20.659Z,57.60
2023-05-14T11:17:49.453Z,56.30
2023-05-14T11:20:17.175Z,56.00
2023-05-14T11:22:45.374Z,55.60
2023-05-14T11:25:18.333Z,55.20
2023-05-14T11:27:46.881Z,54.90
2023-05-14T11:30:16.042Z,55.70
2023-05-14T11:32:46.033Z,56.50
2023-05-14T11:35:13.642Z,56.70
2023-05-14T11:37:40.739Z,57.20
2023-05-14T11:40:13.899Z,55.80
2023-05-14T11:42:40.755Z,55.60
2023-05-14T11:45:11.833Z,55.20
2023-05-14T11:47:39.214Z,55.80
2023-05-14T11:50:09.127Z,55.40
2023-05-14T11:52:42.251Z,55.50
2023-05-14T11:55:12.866Z,55.50
2023-05-14T11:57:40.895Z,54.30
2023-05-14T12:00:16.937Z,52.60
2023-05-14T12:02:43.998Z,51.70
2023-05-14T12:05:13.393Z,51.70
2023-05-14T12:07:41.899Z,51.70
2023-05-14T12:10:09.049Z,50.60
2023-05-14T12:12:39.432Z,50.40
2023-05-14T12:15:13.842Z,51.30
2023-05-14T12:17:41.513Z,50.70
2023-05-14T12:20:12.334Z,50.20
2023-05-14T12:22:41.432Z,49.90
2023-05-14T12:25:15.849Z,49.80
2023-05-14T12:27:45.525Z,50.00
2023-05-14T12:30:21.283Z,50.90
2023-05-14T12:32:51.660Z,50.80
2023-05-14T12:35:19.041Z,50.70
2023-05-14T12:37:45.937Z,50.90
2023-05-14T12:40:12.967Z,51.70
2023-05-14T12:42:39.986Z,50.80
2023-05-14T12:45:08.461Z,51.60
2023-05-14T12:47:36.181Z,51.10
2023-05-14T12:50:03.601Z,50.90
2023-05-14T12:52:37.530Z,50.80
2023-05-14T12:55:07.418Z,50.00
2023-05-14T12:57:35.459Z,51.10
2023-05-14T13:00:06.830Z,52.80
2023-05-14T13:02:43.193Z,55.30
2023-05-14T13:05:11.650Z,57.60
2023-05-14T13:07:38.908Z,59.80
2023-05-14T13:10:06.620Z,61.50
2023-05-14T13:12:33.485Z,62.00
2023-05-14T13:15:00.517Z,64.10
2023-05-14T13:17:27.566Z,64.60
2023-05-14T13:19:54.561Z,63.20
2023-05-14T13:22:21.412Z,63.20
2023-05-14T13:24:48.278Z,65.50
2023-05-14T13:27:16.377Z,63.00
2023-05-14T13:29:43.320Z,63.10
2023-05-14T13:32:12.426Z,63.80
2023-05-14T13:34:39.613Z,61.80
2023-05-14T13:37:07.514Z,60.40
2023-05-14T13:39:34.419Z,61.30
2023-05-14T13:42:01.326Z,63.50
2023-05-14T13:44:28.223Z,62.90
2023-05-14T13:46:55.194Z,60.90
2023-05-14T13:49:22.413Z,63.30
2023-05-14T13:51:49.272Z,64.70
2023-05-14T13:54:16.170Z,64.90
2023-05-14T13:56:43.016Z,63.40
2023-05-14T13:59:11.373Z,63.00
2023-05-14T14:01:38.350Z,61.10
2023-05-14T14:04:05.401Z,62.10
2023-05-14T14:06:33.284Z,59.40
2023-05-14T14:09:00.352Z,56.50
2023-05-14T14:11:27.745Z,57.00
2023-05-14T14:13:54.688Z,57.30
2023-05-14T14:16:25.412Z,55.40
2023-05-14T14:18:52.504Z,55.10
2023-05-14T14:21:20.934Z,56.60
2023-05-14T14:23:48.123Z,60.30
2023-05-14T14:26:14.918Z,57.80
2023-05-14T14:28:42.021Z,53.50
2023-05-14T14:31:08.954Z,52.30
2023-05-14T14:33:35.861Z,51.70
2023-05-14T14:36:02.718Z,53.60
2023-05-14T14:38:29.532Z,53.30
2023-05-14T14:40:57.543Z,50.30
2023-05-14T14:43:24.752Z,50.20
2023-05-14T14:45:51.586Z,48.10
2023-05-14T14:48:33.890Z,46.70
2023-05-14T14:51:01.477Z,46.20
2023-05-14T14:53:28.379Z,46.60
2023-05-14T14:55:56.228Z,45.00
2023-05-14T14:58:23.932Z,44.40
2023-05-14T15:00:53.398Z,44.50
2023-05-14T15:03:21.290Z,44.10
2023-05-14T15:05:48.873Z,45.80
2023-05-14T15:08:15.933Z,45.30
2023-05-14T15:10:44.093Z,45.00
2023-05-14T15:13:12.332Z,43.90
2023-05-14T15:15:39.177Z,44.40
2023-05-14T15:18:06.145Z,43.70
2023-05-14T15:20:33.139Z,44.80
2023-05-14T15:23:00.058Z,43.20
2023-05-14T15:25:27.338Z,43.20
2023-05-14T15:27:54.250Z,41.60
2023-05-14T15:30:21.059Z,41.60
2023-05-14T15:32:47.957Z,41.40
2023-05-14T15:35:14.908Z,42.50
2023-05-14T15:37:43.755Z,42.10
2023-05-14T15:40:11.792Z,42.00
2023-05-14T15:42:41.854Z,42.10
2023-05-14T15:45:10.329Z,42.40
2023-05-14T15:47:37.381Z,42.90
2023-05-14T15:50:05.329Z,43.30
2023-05-14T15:52:32.466Z,43.30
2023-05-14T15:54:59.618Z,43.30
2023-05-14T15:57:27.466Z,43.30
2023-05-14T15:59:54.331Z,44.10
2023-05-14T16:02:21.143Z,43.50
2023-05-14T16:04:49.452Z,43.40
2023-05-14T16:07:16.433Z,43.70
2023-05-14T16:09:43.469Z,45.00
2023-05-14T16:12:10.521Z,44.40
2023-05-14T16:14:38.330Z,44.80
2023-05-14T16:17:06.361Z,44.90
2023-05-14T16:19:33.174Z,45.70
2023-05-14T16:21:59.937Z,46.20
2023-05-14T16:24:26.916Z,47.00
2023-05-14T16:26:54.108Z,45.70
2023-05-14T16:29:20.904Z,45.20
2023-05-14T16:31:47.737Z,45.80
2023-05-14T16:34:14.637Z,45.30
2023-05-14T16:36:41.482Z,45.10
2023-05-14T16:39:08.717Z,44.20
2023-05-14T16:41:36.075Z,43.70
2023-05-14T16:44:04.096Z,44.20
2023-05-14T16:46:32.441Z,43.40
2023-05-14T16:48:59.396Z,42.70
2023-05-14T16:51:26.212Z,42.60
2023-05-14T16:53:55.457Z,42.60
2023-05-14T16:56:22.708Z,42.50
2023-05-14T16:58:49.811Z,42.10
2023-05-14T17:01:16.696Z,41.50
2023-05-14T17:03:45.506Z,41.50
2023-05-14T17:06:12.420Z,41.10
2023-05-14T17:08:39.621Z,40.90
2023-05-14T17:11:06.523Z,41.30
2023-05-14T17:13:34.117Z,41.20
2023-05-14T17:16:02.136Z,41.80
2023-05-14T17:18:29.159Z,41.90
2023-05-14T17:20:56.034Z,42.70
2023-05-14T17:23:23.020Z,41.90
2023-05-14T17:25:50.127Z,41.90
2023-05-14T17:28:17.058Z,42.60
2023-05-14T17:30:43.924Z,42.50
2023-05-14T17:33:11.699Z,43.50
2023-05-14T17:35:38.891Z,44.30
2023-05-14T17:38:06.042Z,44.50
2023-05-14T17:40:33.492Z,45.20
2023-05-14T17:43:00.847Z,45.10
2023-05-14T17:45:29.489Z,45.50
2023-05-14T17:47:59.212Z,45.80
2023-05-14T17:50:26.088Z,46.70
2023-05-14T17:52:53.652Z,46.90
2023-05-14T17:55:21.295Z,47.30
2023-05-14T17:57:48.250Z,47.50
2023-05-14T18:00:15.255Z,48.10
2023-05-14T18:02:42.168Z,48.70
2023-05-14T18:05:09.222Z,49.10
2023-05-14T18:07:36.692Z,49.40
2023-05-14T18:10:04.248Z,49.70
2023-05-14T18:12:31.178Z,49.90
2023-05-14T18:14:58.053Z,50.30
2023-05-14T18:17:24.917Z,50.60
2023-05-14T18:19:51.841Z,50.70
2023-05-14T18:22:21.355Z,51.30
2023-05-14T18:24:48.169Z,51.00
2023-05-14T18:27:15.059Z,50.90
2023-05-14T18:29:42.737Z,50.90
2023-05-14T18:32:09.797Z,51.40
2023-05-14T18:34:36.693Z,51.50
2023-05-14T18:37:03.667Z,51.50
2023-05-14T18:39:30.471Z,51.40
2023-05-14T18:41:57.473Z,51.60
2023-05-14T18:44:24.269Z,52.00
2023-05-14T18:46:51.381Z,52.60
2023-05-14T18:49:18.191Z,53.90
2023-05-14T18:51:45.242Z,52.60
2023-05-14T18:54:14.480Z,53.00
2023-05-14T18:56:46.826Z,53.30
2023-05-14T18:59:14.766Z,53.70
2023-05-14T19:01:41.620Z,53.80
2023-05-14T19:04:08.589Z,54.00
2023-05-14T19:06:36.191Z,54.60
2023-05-14T19:09:04.196Z,55.10
2023-05-14T19:11:31.033Z,55.50
2023-05-14T19:13:58.091Z,55.80
2023-05-14T19:16:24.986Z,56.60
2023-05-14T19:18:52.322Z,56.80
2023-05-14T19:21:19.209Z,57.00
2023-05-14T19:23:46.041Z,57.40
2023-05-14T19:26:12.933Z,58.10
2023-05-14T19:28:40.414Z,58.90
2023-05-14T19:31:07.257Z,59.40
2023-05-14T19:33:34.463Z,59.50
2023-05-14T19:36:01.384Z,59.10
2023-05-14T19:38:29.608Z,59.00
2023-05-14T19:40:57.368Z,59.20
2023-05-14T19:43:25.645Z,59.10
2023-05-14T19:45:52.708Z,59.40
2023-05-14T19:48:20.005Z,59.50
2023-05-14T19:50:47.397Z,59.70
2023-05-14T19:53:14.682Z,59.80
2023-05-14T19:55:41.805Z,60.00
2023-05-14T19:58:09.025Z,60.00
2023-05-14T20:00:36.873Z,60.00
2023-05-14T20:03:04.324Z,60.20
2023-05-14T20:05:32.024Z,60.20
2023-05-14T20:07:58.899Z,60.20
2023-05-14T20:10:25.957Z,60.30
2023-05-14T20:12:53.112Z,60.20
2023-05-14T20:15:20.799Z,60.30
2023-05-14T20:17:47.690Z,60.30
2023-05-14T20:20:14.588Z,61.10
2023-05-14T20:22:42.767Z,61.70
2023-05-14T20:25:10.149Z,61.30
2023-05-14T20:27:37.188Z,61.60
2023-05-14T20:30:04.576Z,62.20
2023-05-14T20:32:31.468Z,62.50
2023-05-14T20:35:01.969Z,63.40
2023-05-14T20:37:33.055Z,63.70
2023-05-14T20:40:00.388Z,63.60
2023-05-14T20:42:27.354Z,63.70
2023-05-14T20:44:54.969Z,64.60
2023-05-14T20:47:26.415Z,65.30
2023-05-14T20:49:53.451Z,65.50
2023-05-14T20:52:20.400Z,65.80
2023-05-14T20:54:47.337Z,66.40
2023-05-14T20:57:15.968Z,66.90
2023-05-14T20:59:43.067Z,67.60
2023-05-14T21:02:10.674Z,68.20
2023-05-14T21:04:38.152Z,67.50
2023-05-14T21:07:05.522Z,69.40
2023-05-14T21:09:32.321Z,69.00
2023-05-14T21:11:59.198Z,68.90
2023-05-14T21:14:26.100Z,68.90
2023-05-14T21:16:52.854Z,68.40
2023-05-14T21:19:19.853Z,69.90
2023-05-14T21:21:47.350Z,69.70
2023-05-14T21:24:16.610Z,69.10
2023-05-14T21:26:43.732Z,70.10
2023-05-14T21:29:11.058Z,70.90
2023-05-14T21:31:37.863Z,71.50
2023-05-14T21:34:04.801Z,71.70
2023-05-14T21:36:31.799Z,72.00
2023-05-14T21:38:58.636Z,71.90
2023-05-14T21:41:25.514Z,72.10
2023-05-14T21:43:52.486Z,72.20
2023-05-14T21:46:19.405Z,72.90
2023-05-14T21:48:46.343Z,73.30
2023-05-14T21:51:13.346Z,73.80
2023-05-14T21:53:40.215Z,74.20
2023-05-14T21:56:08.175Z,74.70
2023-05-14T21:58:35.705Z,75.10
2023-05-14T22:01:02.585Z,75.60
2023-05-14T22:03:29.557Z,76.00
2023-05-14T22:05:56.739Z,76.30
2023-05-14T22:08:23.996Z,76.10
2023-05-14T22:10:50.991Z,76.50
2023-05-14T22:13:17.883Z,77.30
2023-05-14T22:15:44.885Z,78.10
2023-05-14T22:18:12.820Z,78.80
2023-05-14T22:20:40.010Z,78.70
2023-05-14T22:23:07.116Z,79.20
2023-05-14T22:25:34.147Z,79.80
2023-05-14T22:28:01.002Z,80.30
2023-05-14T22:30:27.847Z,80.90
2023-05-14T22:32:54.792Z,81.40
2023-05-14T22:35:21.633Z,81.30
2023-05-14T22:37:48.602Z,81.70
2023-05-14T22:40:15.548Z,82.00
2023-05-14T22:42:42.394Z,82.60
2023-05-14T22:45:09.663Z,82.90
2023-05-14T22:47:37.999Z,83.40
2023-05-14T22:50:11.119Z,83.50
2023-05-14T22:52:39.138Z,83.40
2023-05-14T22:55:06.513Z,83.80
2023-05-14T22:57:34.361Z,84.10
2023-05-14T23:00:01.373Z,84.30
2023-05-14T23:02:28.415Z,84.70
2023-05-14T23:04:55.462Z,85.50
2023-05-14T23:07:22.680Z,86.10
2023-05-14T23:09:49.489Z,86.30
2023-05-14T23:12:16.356Z,86.10
2023-05-14T23:14:43.145Z,85.70
2023-05-14T23:17:10.009Z,85.50
2023-05-14T23:19:36.912Z,85.70
2023-05-14T23:22:03.972Z,85.80
2023-05-14T23:24:30.771Z,86.40
2023-05-14T23:26:57.635Z,86.30
2023-05-14T23:29:24.445Z,86.90
2023-05-14T23:31:51.422Z,87.10
2023-05-14T23:34:18.435Z,87.30
2023-05-14T23:36:45.514Z,87.90
2023-05-14T23:39:12.434Z,88.20
2023-05-14T23:41:39.279Z,88.40
2023-05-14T23:44:06.161Z,89.00
2023-05-14T23:46:33.429Z,89.00
2023-05-14T23:49:00.822Z,89.60
2023-05-14T23:51:27.754Z,89.70
2023-05-14T23:53:58.224Z,90.40
2023-05-14T23:56:26.126Z,89.40
2023-05-14T23:58:53.259Z,89.60
